sensor_id;sensor_type;location;lat;lon;timestamp;temperature;humidity
45619;DHT22;31343;47.520;19.144;2023-07-29T00:00:41;21.20;99.90
45619;DHT22;31343;47.520;19.144;2023-07-29T00:03:08;21.20;99.90
45619;DHT22;31343;47.520;19.144;2023-07-29T00:05:34;21.20;99.90
45619;DHT22;31343;47.520;19.144;2023-07-29T00:08:00;21.20;99.90
45619;DHT22;31343;47.520;19.144;2023-07-29T00:10:26;21.20;99.90
45619;DHT22;31343;47.520;19.144;2023-07-29T00:12:51;21.20;99.90
45619;DHT22;31343;47.520;19.144;2023-07-29T00:15:18;21.20;99.90
45619;DHT22;31343;47.520;19.144;2023-07-29T00:17:43;21.10;99.90
45619;DHT22;31343;47.520;19.144;2023-07-29T00:20:09;21.00;99.90
45619;DHT22;31343;47.520;19.144;2023-07-29T00:22:35;21.00;99.90
45619;DHT22;31343;47.520;19.144;2023-07-29T00:25:01;21.10;99.90
45619;DHT22;31343;47.520;19.144;2023-07-29T00:27:27;21.10;99.90
45619;DHT22;31343;47.520;19.144;2023-07-29T00:29:53;21.10;99.90
45619;DHT22;31343;47.520;19.144;2023-07-29T00:32:19;21.10;99.90
45619;DHT22;31343;47.520;19.144;2023-07-29T00:34:45;21.10;99.90
45619;DHT22;31343;47.520;19.144;2023-07-29T00:37:10;21.10;99.90
45619;DHT22;31343;47.520;19.144;2023-07-29T00:39:37;21.00;99.90
45619;DHT22;31343;47.520;19.144;2023-07-29T00:42:03;21.00;99.90
45619;DHT22;31343;47.520;19.144;2023-07-29T00:44:29;21.00;99.90
45619;DHT22;31343;47.520;19.144;2023-07-29T00:46:57;21.00;99.90
45619;DHT22;31343;47.520;19.144;2023-07-29T00:49:24;20.90;99.90
45619;DHT22;31343;47.520;19.144;2023-07-29T00:51:50;20.90;99.90
45619;DHT22;31343;47.520;19.144;2023-07-29T00:54:16;20.90;99.90
45619;DHT22;31343;47.520;19.144;2023-07-29T00:56:42;20.90;99.90
45619;DHT22;31343;47.520;19.144;2023-07-29T00:59:08;20.80;99.90
45619;DHT22;31343;47.520;19.144;2023-07-29T01:01:34;20.80;99.90
45619;DHT22;31343;47.520;19.144;2023-07-29T01:04:00;20.80;99.90
45619;DHT22;31343;47.520;19.144;2023-07-29T01:09:36;20.70;99.90
45619;DHT22;31343;47.520;19.144;2023-07-29T01:15:14;20.50;99.90
45619;DHT22;31343;47.520;19.144;2023-07-29T01:18:12;20.40;99.90
45619;DHT22;31343;47.520;19.144;2023-07-29T01:20:42;20.40;99.90
45619;DHT22;31343;47.520;19.144;2023-07-29T01:23:09;20.30;99.90
45619;DHT22;31343;47.520;19.144;2023-07-29T01:25:35;20.30;99.90
45619;DHT22;31343;47.520;19.144;2023-07-29T01:28:00;20.20;99.90
45619;DHT22;31343;47.520;19.144;2023-07-29T01:30:31;20.30;99.90
45619;DHT22;31343;47.520;19.144;2023-07-29T01:33:06;20.30;99.90
45619;DHT22;31343;47.520;19.144;2023-07-29T01:35:33;20.20;99.90
45619;DHT22;31343;47.520;19.144;2023-07-29T01:38:28;20.30;99.90
45619;DHT22;31343;47.520;19.144;2023-07-29T01:40:59;20.30;99.90
45619;DHT22;31343;47.520;19.144;2023-07-29T01:43:30;20.30;99.90
45619;DHT22;31343;47.520;19.144;2023-07-29T01:45:56;20.30;99.90
45619;DHT22;31343;47.520;19.144;2023-07-29T01:48:23;20.30;99.90
45619;DHT22;31343;47.520;19.144;2023-07-29T01:50:48;20.20;99.90
45619;DHT22;31343;47.520;19.144;2023-07-29T01:53:15;20.20;99.90
45619;DHT22;31343;47.520;19.144;2023-07-29T01:55:42;20.20;99.90
45619;DHT22;31343;47.520;19.144;2023-07-29T01:58:07;20.20;99.90
45619;DHT22;31343;47.520;19.144;2023-07-29T02:00:33;20.10;99.90
45619;DHT22;31343;47.520;19.144;2023-07-29T02:02:59;20.10;99.90
45619;DHT22;31343;47.520;19.144;2023-07-29T02:05:24;20.00;99.90
45619;DHT22;31343;47.520;19.144;2023-07-29T02:07:50;20.00;99.90
45619;DHT22;31343;47.520;19.144;2023-07-29T02:10:16;20.00;99.90
45619;DHT22;31343;47.520;19.144;2023-07-29T02:12:42;19.90;99.90
45619;DHT22;31343;47.520;19.144;2023-07-29T02:15:08;19.90;99.90
45619;DHT22;31343;47.520;19.144;2023-07-29T02:17:34;20.00;99.90
45619;DHT22;31343;47.520;19.144;2023-07-29T02:20:00;19.90;99.90
45619;DHT22;31343;47.520;19.144;2023-07-29T02:22:26;19.90;99.90
45619;DHT22;31343;47.520;19.144;2023-07-29T02:24:52;19.90;99.90
45619;DHT22;31343;47.520;19.144;2023-07-29T02:27:18;19.90;99.90
45619;DHT22;31343;47.520;19.144;2023-07-29T02:29:43;19.90;99.90
45619;DHT22;31343;47.520;19.144;2023-07-29T02:32:09;19.90;99.90
45619;DHT22;31343;47.520;19.144;2023-07-29T02:34:35;19.80;99.90
45619;DHT22;31343;47.520;19.144;2023-07-29T02:37:00;19.80;99.90
45619;DHT22;31343;47.520;19.144;2023-07-29T02:39:26;19.80;99.90
45619;DHT22;31343;47.520;19.144;2023-07-29T02:41:52;19.80;99.90
45619;DHT22;31343;47.520;19.144;2023-07-29T02:44:18;19.80;99.90
45619;DHT22;31343;47.520;19.144;2023-07-29T02:46:45;19.70;99.90
45619;DHT22;31343;47.520;19.144;2023-07-29T02:49:11;19.70;99.90
45619;DHT22;31343;47.520;19.144;2023-07-29T02:51:36;19.70;99.90
45619;DHT22;31343;47.520;19.144;2023-07-29T02:54:03;19.70;99.90
45619;DHT22;31343;47.520;19.144;2023-07-29T02:56:29;19.60;99.90
45619;DHT22;31343;47.520;19.144;2023-07-29T02:58:56;19.60;99.90
45619;DHT22;31343;47.520;19.144;2023-07-29T03:01:23;19.70;99.90
45619;DHT22;31343;47.520;19.144;2023-07-29T03:03:50;19.70;99.90
45619;DHT22;31343;47.520;19.144;2023-07-29T03:06:16;19.60;99.90
45619;DHT22;31343;47.520;19.144;2023-07-29T03:08:42;19.60;99.90
45619;DHT22;31343;47.520;19.144;2023-07-29T03:11:10;19.60;99.90
45619;DHT22;31343;47.520;19.144;2023-07-29T03:13:36;19.60;99.90
45619;DHT22;31343;47.520;19.144;2023-07-29T03:16:13;19.50;99.90
45619;DHT22;31343;47.520;19.144;2023-07-29T03:18:41;19.50;99.90
45619;DHT22;31343;47.520;19.144;2023-07-29T03:21:07;19.50;99.90
45619;DHT22;31343;47.520;19.144;2023-07-29T03:23:33;19.40;99.90
45619;DHT22;31343;47.520;19.144;2023-07-29T03:26:01;19.40;99.90
45619;DHT22;31343;47.520;19.144;2023-07-29T03:28:29;19.50;99.90
45619;DHT22;31343;47.520;19.144;2023-07-29T03:30:55;19.50;99.90
45619;DHT22;31343;47.520;19.144;2023-07-29T03:33:22;19.50;99.90
45619;DHT22;31343;47.520;19.144;2023-07-29T03:35:48;19.50;99.90
45619;DHT22;31343;47.520;19.144;2023-07-29T03:38:14;19.50;99.90
45619;DHT22;31343;47.520;19.144;2023-07-29T03:40:41;19.50;99.90
45619;DHT22;31343;47.520;19.144;2023-07-29T03:43:07;19.50;99.90
45619;DHT22;31343;47.520;19.144;2023-07-29T03:45:34;19.50;99.90
45619;DHT22;31343;47.520;19.144;2023-07-29T03:48:00;19.40;99.90
45619;DHT22;31343;47.520;19.144;2023-07-29T03:50:26;19.50;99.90
45619;DHT22;31343;47.520;19.144;2023-07-29T03:52:52;19.50;99.90
45619;DHT22;31343;47.520;19.144;2023-07-29T03:55:18;19.50;99.90
45619;DHT22;31343;47.520;19.144;2023-07-29T03:57:44;19.50;99.90
45619;DHT22;31343;47.520;19.144;2023-07-29T04:00:10;19.60;99.90
45619;DHT22;31343;47.520;19.144;2023-07-29T04:02:36;19.60;99.90
45619;DHT22;31343;47.520;19.144;2023-07-29T04:05:05;19.60;99.90
45619;DHT22;31343;47.520;19.144;2023-07-29T04:07:34;19.70;99.90
45619;DHT22;31343;47.520;19.144;2023-07-29T04:10:00;19.50;99.90
45619;DHT22;31343;47.520;19.144;2023-07-29T04:12:27;19.70;99.90
45619;DHT22;31343;47.520;19.144;2023-07-29T04:14:53;19.70;99.90
45619;DHT22;31343;47.520;19.144;2023-07-29T04:17:18;19.80;99.90
45619;DHT22;31343;47.520;19.144;2023-07-29T04:19:44;19.80;99.90
45619;DHT22;31343;47.520;19.144;2023-07-29T04:22:10;19.70;99.90
45619;DHT22;31343;47.520;19.144;2023-07-29T04:24:36;19.80;99.90
45619;DHT22;31343;47.520;19.144;2023-07-29T04:27:01;19.80;99.90
45619;DHT22;31343;47.520;19.144;2023-07-29T04:29:27;19.90;99.90
45619;DHT22;31343;47.520;19.144;2023-07-29T04:31:53;19.90;99.90
45619;DHT22;31343;47.520;19.144;2023-07-29T04:34:19;20.10;99.90
45619;DHT22;31343;47.520;19.144;2023-07-29T04:36:46;20.10;99.90
45619;DHT22;31343;47.520;19.144;2023-07-29T04:39:12;20.20;99.90
45619;DHT22;31343;47.520;19.144;2023-07-29T04:41:38;20.30;99.90
45619;DHT22;31343;47.520;19.144;2023-07-29T04:44:03;20.40;99.90
45619;DHT22;31343;47.520;19.144;2023-07-29T04:46:29;20.60;99.90
45619;DHT22;31343;47.520;19.144;2023-07-29T04:48:55;20.80;99.90
45619;DHT22;31343;47.520;19.144;2023-07-29T04:51:21;21.10;99.90
45619;DHT22;31343;47.520;19.144;2023-07-29T04:53:47;21.30;99.90
45619;DHT22;31343;47.520;19.144;2023-07-29T04:56:13;21.50;99.90
45619;DHT22;31343;47.520;19.144;2023-07-29T04:58:39;21.70;99.90
45619;DHT22;31343;47.520;19.144;2023-07-29T05:01:05;21.70;99.90
45619;DHT22;31343;47.520;19.144;2023-07-29T05:03:31;21.70;99.90
45619;DHT22;31343;47.520;19.144;2023-07-29T05:05:58;21.70;99.90
45619;DHT22;31343;47.520;19.144;2023-07-29T05:08:28;21.70;99.90
45619;DHT22;31343;47.520;19.144;2023-07-29T05:10:54;21.90;99.90
45619;DHT22;31343;47.520;19.144;2023-07-29T05:13:21;22.00;99.90
45619;DHT22;31343;47.520;19.144;2023-07-29T05:15:48;22.50;99.90
45619;DHT22;31343;47.520;19.144;2023-07-29T05:18:14;23.10;99.90
45619;DHT22;31343;47.520;19.144;2023-07-29T05:20:40;23.90;99.90
45619;DHT22;31343;47.520;19.144;2023-07-29T05:23:06;24.70;99.90
45619;DHT22;31343;47.520;19.144;2023-07-29T05:25:32;25.60;99.90
45619;DHT22;31343;47.520;19.144;2023-07-29T05:28:03;26.50;99.90
45619;DHT22;31343;47.520;19.144;2023-07-29T05:30:30;27.20;99.90
45619;DHT22;31343;47.520;19.144;2023-07-29T05:33:03;28.10;99.90
45619;DHT22;31343;47.520;19.144;2023-07-29T05:35:29;29.10;99.90
45619;DHT22;31343;47.520;19.144;2023-07-29T05:37:55;29.60;99.90
45619;DHT22;31343;47.520;19.144;2023-07-29T05:40:21;29.60;99.90
45619;DHT22;31343;47.520;19.144;2023-07-29T05:42:46;30.20;99.30
45619;DHT22;31343;47.520;19.144;2023-07-29T05:45:13;30.50;97.20
45619;DHT22;31343;47.520;19.144;2023-07-29T05:47:39;30.30;95.40
45619;DHT22;31343;47.520;19.144;2023-07-29T05:50:05;30.20;95.80
45619;DHT22;31343;47.520;19.144;2023-07-29T05:52:34;30.40;95.10
45619;DHT22;31343;47.520;19.144;2023-07-29T05:55:00;29.50;96.10
45619;DHT22;31343;47.520;19.144;2023-07-29T05:57:26;29.20;97.50
45619;DHT22;31343;47.520;19.144;2023-07-29T05:59:52;28.60;97.40
45619;DHT22;31343;47.520;19.144;2023-07-29T06:02:18;28.10;97.70
45619;DHT22;31343;47.520;19.144;2023-07-29T06:04:44;27.70;98.00
45619;DHT22;31343;47.520;19.144;2023-07-29T06:07:09;27.60;99.10
45619;DHT22;31343;47.520;19.144;2023-07-29T06:09:35;27.80;99.50
45619;DHT22;31343;47.520;19.144;2023-07-29T06:12:01;28.10;98.80
45619;DHT22;31343;47.520;19.144;2023-07-29T06:14:26;28.20;98.70
45619;DHT22;31343;47.520;19.144;2023-07-29T06:16:52;28.10;98.30
45619;DHT22;31343;47.520;19.144;2023-07-29T06:19:19;27.50;99.30
45619;DHT22;31343;47.520;19.144;2023-07-29T06:21:46;27.50;99.90
45619;DHT22;31343;47.520;19.144;2023-07-29T06:24:11;28.10;99.30
45619;DHT22;31343;47.520;19.144;2023-07-29T06:26:37;28.10;98.10
45619;DHT22;31343;47.520;19.144;2023-07-29T06:29:03;28.60;97.80
45619;DHT22;31343;47.520;19.144;2023-07-29T06:31:29;29.00;97.00
45619;DHT22;31343;47.520;19.144;2023-07-29T06:33:55;29.30;97.20
45619;DHT22;31343;47.520;19.144;2023-07-29T06:36:21;29.80;97.10
45619;DHT22;31343;47.520;19.144;2023-07-29T06:38:47;31.00;95.50
45619;DHT22;31343;47.520;19.144;2023-07-29T06:41:12;32.30;93.70
45619;DHT22;31343;47.520;19.144;2023-07-29T06:43:38;33.40;92.20
45619;DHT22;31343;47.520;19.144;2023-07-29T06:46:04;34.10;90.50
45619;DHT22;31343;47.520;19.144;2023-07-29T06:48:30;34.80;90.00
45619;DHT22;31343;47.520;19.144;2023-07-29T06:50:55;35.30;87.40
45619;DHT22;31343;47.520;19.144;2023-07-29T06:53:27;36.20;84.20
45619;DHT22;31343;47.520;19.144;2023-07-29T06:55:53;36.50;82.30
45619;DHT22;31343;47.520;19.144;2023-07-29T06:58:19;36.30;81.20
45619;DHT22;31343;47.520;19.144;2023-07-29T07:00:45;37.00;80.10
45619;DHT22;31343;47.520;19.144;2023-07-29T07:03:10;36.80;79.80
45619;DHT22;31343;47.520;19.144;2023-07-29T07:05:36;36.60;78.80
45619;DHT22;31343;47.520;19.144;2023-07-29T07:08:02;37.10;77.00
45619;DHT22;31343;47.520;19.144;2023-07-29T07:10:29;37.60;75.50
45619;DHT22;31343;47.520;19.144;2023-07-29T07:12:54;37.50;77.60
45619;DHT22;31343;47.520;19.144;2023-07-29T07:15:20;38.00;75.30
45619;DHT22;31343;47.520;19.144;2023-07-29T07:17:46;37.30;74.10
45619;DHT22;31343;47.520;19.144;2023-07-29T07:20:12;37.10;73.40
45619;DHT22;31343;47.520;19.144;2023-07-29T07:22:37;37.20;75.00
45619;DHT22;31343;47.520;19.144;2023-07-29T07:25:03;36.30;74.20
45619;DHT22;31343;47.520;19.144;2023-07-29T07:27:29;35.70;74.80
45619;DHT22;31343;47.520;19.144;2023-07-29T07:29:55;35.00;75.30
45619;DHT22;31343;47.520;19.144;2023-07-29T07:32:20;34.70;76.60
45619;DHT22;31343;47.520;19.144;2023-07-29T07:34:46;34.40;77.80
45619;DHT22;31343;47.520;19.144;2023-07-29T07:37:12;34.20;78.60
45619;DHT22;31343;47.520;19.144;2023-07-29T07:39:38;33.40;79.20
45619;DHT22;31343;47.520;19.144;2023-07-29T07:42:04;33.50;80.80
45619;DHT22;31343;47.520;19.144;2023-07-29T07:44:29;33.40;79.50
45619;DHT22;31343;47.520;19.144;2023-07-29T07:46:55;33.30;79.30
45619;DHT22;31343;47.520;19.144;2023-07-29T07:49:22;33.50;79.80
45619;DHT22;31343;47.520;19.144;2023-07-29T07:51:48;33.50;81.20
45619;DHT22;31343;47.520;19.144;2023-07-29T07:54:13;33.20;80.60
45619;DHT22;31343;47.520;19.144;2023-07-29T07:56:39;33.20;80.90
45619;DHT22;31343;47.520;19.144;2023-07-29T07:59:05;32.80;82.30
45619;DHT22;31343;47.520;19.144;2023-07-29T08:01:35;33.10;81.70
45619;DHT22;31343;47.520;19.144;2023-07-29T08:04:01;33.30;82.50
45619;DHT22;31343;47.520;19.144;2023-07-29T08:06:27;33.50;81.00
45619;DHT22;31343;47.520;19.144;2023-07-29T08:08:53;33.30;80.60
45619;DHT22;31343;47.520;19.144;2023-07-29T08:11:19;33.50;81.40
45619;DHT22;31343;47.520;19.144;2023-07-29T08:13:44;33.80;81.30
45619;DHT22;31343;47.520;19.144;2023-07-29T08:16:10;33.70;80.40
45619;DHT22;31343;47.520;19.144;2023-07-29T08:18:36;34.30;80.50
45619;DHT22;31343;47.520;19.144;2023-07-29T08:21:02;34.80;79.10
45619;DHT22;31343;47.520;19.144;2023-07-29T08:23:32;34.00;78.30
45619;DHT22;31343;47.520;19.144;2023-07-29T08:26:01;34.50;79.30
45619;DHT22;31343;47.520;19.144;2023-07-29T08:28:28;33.80;78.50
45619;DHT22;31343;47.520;19.144;2023-07-29T08:30:55;33.70;79.10
45619;DHT22;31343;47.520;19.144;2023-07-29T08:33:20;32.70;80.00
45619;DHT22;31343;47.520;19.144;2023-07-29T08:35:46;32.10;81.80
45619;DHT22;31343;47.520;19.144;2023-07-29T08:38:12;31.70;81.40
45619;DHT22;31343;47.520;19.144;2023-07-29T08:43:14;32.90;81.70
45619;DHT22;31343;47.520;19.144;2023-07-29T08:45:44;33.60;80.50
45619;DHT22;31343;47.520;19.144;2023-07-29T08:48:10;33.70;80.90
45619;DHT22;31343;47.520;19.144;2023-07-29T08:50:38;34.30;79.30
45619;DHT22;31343;47.520;19.144;2023-07-29T08:53:04;34.50;79.20
45619;DHT22;31343;47.520;19.144;2023-07-29T08:55:33;34.60;77.10
45619;DHT22;31343;47.520;19.144;2023-07-29T08:58:00;33.70;78.40
45619;DHT22;31343;47.520;19.144;2023-07-29T09:00:27;33.50;79.50
45619;DHT22;31343;47.520;19.144;2023-07-29T09:02:53;33.60;79.10
45619;DHT22;31343;47.520;19.144;2023-07-29T09:05:21;33.90;77.90
45619;DHT22;31343;47.520;19.144;2023-07-29T09:07:48;33.90;79.10
45619;DHT22;31343;47.520;19.144;2023-07-29T09:10:15;33.00;73.40
45619;DHT22;31343;47.520;19.144;2023-07-29T09:12:41;32.40;74.20
45619;DHT22;31343;47.520;19.144;2023-07-29T09:15:07;32.40;76.30
45619;DHT22;31343;47.520;19.144;2023-07-29T09:17:33;31.90;74.90
45619;DHT22;31343;47.520;19.144;2023-07-29T09:19:59;31.80;74.40
45619;DHT22;31343;47.520;19.144;2023-07-29T09:22:27;31.50;75.20
45619;DHT22;31343;47.520;19.144;2023-07-29T09:24:53;31.30;76.20
45619;DHT22;31343;47.520;19.144;2023-07-29T09:27:28;31.20;75.80
45619;DHT22;31343;47.520;19.144;2023-07-29T09:29:57;31.00;77.10
45619;DHT22;31343;47.520;19.144;2023-07-29T09:32:24;31.00;76.40
45619;DHT22;31343;47.520;19.144;2023-07-29T09:34:51;31.00;77.70
45619;DHT22;31343;47.520;19.144;2023-07-29T09:37:25;31.30;78.90
45619;DHT22;31343;47.520;19.144;2023-07-29T09:39:51;31.40;77.20
45619;DHT22;31343;47.520;19.144;2023-07-29T09:42:18;31.20;76.10
45619;DHT22;31343;47.520;19.144;2023-07-29T09:44:45;31.40;76.30
45619;DHT22;31343;47.520;19.144;2023-07-29T09:47:19;31.10;76.50
45619;DHT22;31343;47.520;19.144;2023-07-29T09:49:45;31.00;77.30
45619;DHT22;31343;47.520;19.144;2023-07-29T09:52:11;31.30;77.70
45619;DHT22;31343;47.520;19.144;2023-07-29T09:54:37;31.20;75.70
45619;DHT22;31343;47.520;19.144;2023-07-29T09:57:03;31.50;77.10
45619;DHT22;31343;47.520;19.144;2023-07-29T09:59:34;31.60;75.80
45619;DHT22;31343;47.520;19.144;2023-07-29T10:02:00;31.40;76.80
45619;DHT22;31343;47.520;19.144;2023-07-29T10:04:26;31.40;75.20
45619;DHT22;31343;47.520;19.144;2023-07-29T10:06:52;31.00;77.10
45619;DHT22;31343;47.520;19.144;2023-07-29T10:09:20;31.10;78.10
45619;DHT22;31343;47.520;19.144;2023-07-29T10:11:46;31.00;77.80
45619;DHT22;31343;47.520;19.144;2023-07-29T10:14:13;31.30;77.20
45619;DHT22;31343;47.520;19.144;2023-07-29T10:16:42;31.50;76.30
45619;DHT22;31343;47.520;19.144;2023-07-29T10:19:10;31.40;75.50
45619;DHT22;31343;47.520;19.144;2023-07-29T10:21:39;31.50;75.50
45619;DHT22;31343;47.520;19.144;2023-07-29T10:24:09;31.60;76.30
45619;DHT22;31343;47.520;19.144;2023-07-29T10:26:40;31.60;75.10
45619;DHT22;31343;47.520;19.144;2023-07-29T10:29:10;31.60;76.00
45619;DHT22;31343;47.520;19.144;2023-07-29T10:31:39;31.70;74.90
45619;DHT22;31343;47.520;19.144;2023-07-29T10:34:05;31.90;75.60
45619;DHT22;31343;47.520;19.144;2023-07-29T10:36:32;32.20;75.60
45619;DHT22;31343;47.520;19.144;2023-07-29T10:38:57;32.30;73.90
45619;DHT22;31343;47.520;19.144;2023-07-29T10:41:23;32.50;74.30
45619;DHT22;31343;47.520;19.144;2023-07-29T10:43:49;32.70;74.90
45619;DHT22;31343;47.520;19.144;2023-07-29T10:48:53;33.00;73.60
45619;DHT22;31343;47.520;19.144;2023-07-29T10:51:35;33.50;73.40
45619;DHT22;31343;47.520;19.144;2023-07-29T10:54:12;34.10;70.40
45619;DHT22;31343;47.520;19.144;2023-07-29T10:56:47;33.60;70.30
45619;DHT22;31343;47.520;19.144;2023-07-29T11:01:41;34.00;72.80
45619;DHT22;31343;47.520;19.144;2023-07-29T11:12:35;33.70;73.80
45619;DHT22;31343;47.520;19.144;2023-07-29T11:17:43;34.70;71.00
45619;DHT22;31343;47.520;19.144;2023-07-29T11:20:10;35.50;70.40
45619;DHT22;31343;47.520;19.144;2023-07-29T11:22:37;35.90;70.60
45619;DHT22;31343;47.520;19.144;2023-07-29T11:25:04;35.80;69.20
45619;DHT22;31343;47.520;19.144;2023-07-29T11:27:31;36.30;68.50
45619;DHT22;31343;47.520;19.144;2023-07-29T11:29:58;36.60;67.90
45619;DHT22;31343;47.520;19.144;2023-07-29T11:32:24;36.80;66.30
45619;DHT22;31343;47.520;19.144;2023-07-29T11:34:50;36.80;67.30
45619;DHT22;31343;47.520;19.144;2023-07-29T11:37:16;37.20;66.90
45619;DHT22;31343;47.520;19.144;2023-07-29T11:39:43;37.40;68.40
45619;DHT22;31343;47.520;19.144;2023-07-29T11:42:13;37.20;66.80
45619;DHT22;31343;47.520;19.144;2023-07-29T11:44:39;36.10;67.60
45619;DHT22;31343;47.520;19.144;2023-07-29T11:47:10;35.40;67.90
45619;DHT22;31343;47.520;19.144;2023-07-29T11:49:37;34.20;69.40
45619;DHT22;31343;47.520;19.144;2023-07-29T11:52:04;33.80;70.90
45619;DHT22;31343;47.520;19.144;2023-07-29T11:54:31;33.30;71.70
45619;DHT22;31343;47.520;19.144;2023-07-29T11:56:57;33.40;72.40
45619;DHT22;31343;47.520;19.144;2023-07-29T11:59:23;34.50;70.90
45619;DHT22;31343;47.520;19.144;2023-07-29T12:01:49;36.00;69.10
45619;DHT22;31343;47.520;19.144;2023-07-29T12:04:15;35.90;67.20
45619;DHT22;31343;47.520;19.144;2023-07-29T12:06:42;35.90;67.00
45619;DHT22;31343;47.520;19.144;2023-07-29T12:09:08;35.30;67.60
45619;DHT22;31343;47.520;19.144;2023-07-29T12:11:36;34.70;69.10
45619;DHT22;31343;47.520;19.144;2023-07-29T12:14:01;33.90;69.50
45619;DHT22;31343;47.520;19.144;2023-07-29T12:16:27;33.80;71.40
45619;DHT22;31343;47.520;19.144;2023-07-29T12:19:00;34.50;71.70
45619;DHT22;31343;47.520;19.144;2023-07-29T12:21:26;34.40;70.00
45619;DHT22;31343;47.520;19.144;2023-07-29T12:23:51;34.20;70.20
45619;DHT22;31343;47.520;19.144;2023-07-29T12:26:17;33.60;69.70
45619;DHT22;31343;47.520;19.144;2023-07-29T12:28:46;32.80;71.80
45619;DHT22;31343;47.520;19.144;2023-07-29T12:31:13;32.90;72.50
45619;DHT22;31343;47.520;19.144;2023-07-29T12:33:39;33.30;72.40
45619;DHT22;31343;47.520;19.144;2023-07-29T12:36:05;33.90;70.80
45619;DHT22;31343;47.520;19.144;2023-07-29T12:38:30;34.30;69.20
45619;DHT22;31343;47.520;19.144;2023-07-29T12:40:56;34.10;66.40
45619;DHT22;31343;47.520;19.144;2023-07-29T12:43:22;33.90;67.20
45619;DHT22;31343;47.520;19.144;2023-07-29T12:45:51;33.60;68.30
45619;DHT22;31343;47.520;19.144;2023-07-29T12:48:17;33.20;69.40
45619;DHT22;31343;47.520;19.144;2023-07-29T12:50:43;33.20;68.90
45619;DHT22;31343;47.520;19.144;2023-07-29T12:53:09;33.30;68.70
45619;DHT22;31343;47.520;19.144;2023-07-29T12:55:38;33.20;67.90
45619;DHT22;31343;47.520;19.144;2023-07-29T12:58:04;33.10;68.70
45619;DHT22;31343;47.520;19.144;2023-07-29T13:00:30;32.70;68.40
45619;DHT22;31343;47.520;19.144;2023-07-29T13:02:56;32.40;69.50
45619;DHT22;31343;47.520;19.144;2023-07-29T13:05:22;32.10;70.20
45619;DHT22;31343;47.520;19.144;2023-07-29T13:07:48;31.90;70.70
45619;DHT22;31343;47.520;19.144;2023-07-29T13:10:14;31.90;69.80
45619;DHT22;31343;47.520;19.144;2023-07-29T13:12:40;32.00;67.80
45619;DHT22;31343;47.520;19.144;2023-07-29T13:15:06;32.10;68.50
45619;DHT22;31343;47.520;19.144;2023-07-29T13:17:33;32.30;68.60
45619;DHT22;31343;47.520;19.144;2023-07-29T13:19:59;32.50;68.40
45619;DHT22;31343;47.520;19.144;2023-07-29T13:22:25;32.30;69.40
45619;DHT22;31343;47.520;19.144;2023-07-29T13:24:50;32.30;69.10
45619;DHT22;31343;47.520;19.144;2023-07-29T13:27:16;32.40;68.10
45619;DHT22;31343;47.520;19.144;2023-07-29T13:29:42;32.50;68.60
45619;DHT22;31343;47.520;19.144;2023-07-29T13:32:09;32.60;69.10
45619;DHT22;31343;47.520;19.144;2023-07-29T13:34:35;32.50;69.40
45619;DHT22;31343;47.520;19.144;2023-07-29T13:37:01;32.60;70.30
45619;DHT22;31343;47.520;19.144;2023-07-29T13:39:26;32.70;70.70
45619;DHT22;31343;47.520;19.144;2023-07-29T13:41:53;32.50;70.30
45619;DHT22;31343;47.520;19.144;2023-07-29T13:44:20;32.20;68.70
45619;DHT22;31343;47.520;19.144;2023-07-29T13:46:45;32.00;70.00
45619;DHT22;31343;47.520;19.144;2023-07-29T13:49:11;31.90;70.90
45619;DHT22;31343;47.520;19.144;2023-07-29T13:51:37;32.00;71.40
45619;DHT22;31343;47.520;19.144;2023-07-29T13:54:03;32.00;70.50
45619;DHT22;31343;47.520;19.144;2023-07-29T13:56:28;32.00;71.70
45619;DHT22;31343;47.520;19.144;2023-07-29T13:58:54;32.30;71.60
45619;DHT22;31343;47.520;19.144;2023-07-29T14:01:20;32.30;72.00
45619;DHT22;31343;47.520;19.144;2023-07-29T14:03:45;32.40;71.80
45619;DHT22;31343;47.520;19.144;2023-07-29T14:06:11;32.10;72.10
45619;DHT22;31343;47.520;19.144;2023-07-29T14:08:37;32.00;71.60
45619;DHT22;31343;47.520;19.144;2023-07-29T14:11:06;32.10;71.70
45619;DHT22;31343;47.520;19.144;2023-07-29T14:13:32;32.20;71.50
45619;DHT22;31343;47.520;19.144;2023-07-29T14:15:59;32.30;72.00
45619;DHT22;31343;47.520;19.144;2023-07-29T14:18:25;32.30;70.70
45619;DHT22;31343;47.520;19.144;2023-07-29T14:20:51;32.10;70.10
45619;DHT22;31343;47.520;19.144;2023-07-29T14:23:16;32.10;70.90
45619;DHT22;31343;47.520;19.144;2023-07-29T14:25:42;32.20;70.60
45619;DHT22;31343;47.520;19.144;2023-07-29T14:28:08;32.10;70.80
45619;DHT22;31343;47.520;19.144;2023-07-29T14:30:34;32.10;70.60
45619;DHT22;31343;47.520;19.144;2023-07-29T14:33:00;32.00;71.00
45619;DHT22;31343;47.520;19.144;2023-07-29T14:35:26;31.80;70.40
45619;DHT22;31343;47.520;19.144;2023-07-29T14:37:52;31.60;70.50
45619;DHT22;31343;47.520;19.144;2023-07-29T14:40:18;31.60;70.60
45619;DHT22;31343;47.520;19.144;2023-07-29T14:42:43;31.60;70.50
45619;DHT22;31343;47.520;19.144;2023-07-29T14:45:09;31.50;70.30
45619;DHT22;31343;47.520;19.144;2023-07-29T14:47:35;31.50;71.00
45619;DHT22;31343;47.520;19.144;2023-07-29T14:50:01;31.50;71.10
45619;DHT22;31343;47.520;19.144;2023-07-29T14:52:27;31.60;71.10
45619;DHT22;31343;47.520;19.144;2023-07-29T14:54:53;31.50;71.50
45619;DHT22;31343;47.520;19.144;2023-07-29T14:57:18;31.40;71.80
45619;DHT22;31343;47.520;19.144;2023-07-29T14:59:44;31.30;71.10
45619;DHT22;31343;47.520;19.144;2023-07-29T15:02:10;31.20;71.80
45619;DHT22;31343;47.520;19.144;2023-07-29T15:04:35;31.10;72.10
45619;DHT22;31343;47.520;19.144;2023-07-29T15:07:02;31.10;72.50
45619;DHT22;31343;47.520;19.144;2023-07-29T15:09:28;31.10;73.40
45619;DHT22;31343;47.520;19.144;2023-07-29T15:11:54;30.90;73.00
45619;DHT22;31343;47.520;19.144;2023-07-29T15:14:19;30.90;73.00
45619;DHT22;31343;47.520;19.144;2023-07-29T15:16:45;30.80;72.50
45619;DHT22;31343;47.520;19.144;2023-07-29T15:19:11;30.80;73.60
45619;DHT22;31343;47.520;19.144;2023-07-29T15:21:36;30.90;74.00
45619;DHT22;31343;47.520;19.144;2023-07-29T15:24:02;30.90;74.10
45619;DHT22;31343;47.520;19.144;2023-07-29T15:26:28;30.90;74.30
45619;DHT22;31343;47.520;19.144;2023-07-29T15:28:54;30.90;74.40
45619;DHT22;31343;47.520;19.144;2023-07-29T15:31:19;30.90;74.40
45619;DHT22;31343;47.520;19.144;2023-07-29T15:33:45;31.00;74.10
45619;DHT22;31343;47.520;19.144;2023-07-29T15:36:11;30.90;74.40